Previous Day
Next Day
Current Day
SHEF ID: FVSO2 FAIRVIEW
STATION TYPE: Mesonet
PRECIP AIR-TEMP WIND-DIRWIND-SPEED REL-HUMID SOLAR-RAD
in F deg mph % W/m2
Raw-Meson Raw-Meson Raw-Meson Raw-Meson Raw-Meson Raw-Meson
(US/Central)
05/07 00:00 0.00 55.31 147.75 4.64 69.00 0.00
05/07 01:00 0.00 52.97 174.50 5.82 73.50 0.00
05/07 02:00 0.00 52.88 164.50 5.26 72.50 0.00
05/07 03:00 0.00 52.03 166.25 5.25 74.00 0.00
05/07 04:00 0.00 50.72 163.50 5.48 77.00 0.00
05/07 05:00 0.00 50.50 159.75 6.26 77.50 0.00
05/07 06:00 0.00 49.10 151.75 5.82 81.00 0.00
05/07 07:00 0.00 47.75 148.25 5.65 85.00 10.75
05/07 08:00 0.00 50.05 143.75 6.38 82.00 130.75
05/07 09:00 0.00 57.02 142.50 10.07 65.25 334.00
05/07 10:00 0.00 62.46 150.00 14.26 52.25 590.00
05/07 11:00 0.00 65.97 144.75 14.71 49.25 624.00
05/07 12:00 0.00 72.09 167.50 14.54 46.50 738.25
05/07 13:00 0.00 76.10 176.00 15.55 47.50 908.50
05/07 14:00 0.00 78.39 181.25 18.12 46.50 931.75
05/07 15:00 0.00 81.09 182.50 17.40 44.25 890.00
05/07 16:00 0.00 83.34 185.00 17.17 41.00 797.25
05/07 17:00 0.00 84.43 190.50 17.34 40.50 636.25
05/07 18:00 0.00 82.58 184.00 12.86 43.50 299.75
05/07 19:00 ---- 81.09 165.00 13.37 45.25 169.25
05/07 20:00 ---- ---- ---- ---- ---- ----
05/07 21:00 ---- ---- ---- ---- ---- ----
05/07 22:00 ---- ---- ---- ---- ---- ----
05/07 23:00 ---- ---- ---- ---- ---- ----